createdAt,value
2019-02-15T00:01:29.202Z,28.83
2019-02-15T00:03:59.462Z,41.13
2019-02-15T00:06:29.818Z,32.37
2019-02-15T00:09:00.090Z,31.63
2019-02-15T00:11:30.388Z,28.97
2019-02-15T00:14:00.675Z,34.37
2019-02-15T00:16:30.921Z,46.60
2019-02-15T00:19:18.775Z,28.90
2019-02-15T00:21:50.954Z,28.37
2019-02-15T00:24:21.271Z,30.13
2019-02-15T00:26:51.697Z,35.87
2019-02-15T00:29:22.003Z,28.17
2019-02-15T00:31:52.309Z,33.37
2019-02-15T00:34:22.598Z,33.77
2019-02-15T00:36:52.855Z,32.77
2019-02-15T00:39:23.140Z,36.17
2019-02-15T00:41:53.394Z,33.73
2019-02-15T00:44:23.662Z,30.67
2019-02-15T00:47:15.873Z,32.30
2019-02-15T00:50:13.406Z,31.77
2019-02-15T00:53:00.002Z,28.57
2019-02-15T00:55:54.930Z,33.20
2019-02-15T00:58:44.126Z,40.53
2019-02-15T01:01:39.180Z,29.83
2019-02-15T01:04:31.095Z,32.63
2019-02-15T01:07:18.449Z,30.23
2019-02-15T01:09:59.278Z,32.13
2019-02-15T01:12:38.645Z,27.13
2019-02-15T01:15:08.941Z,29.73
2019-02-15T01:17:39.237Z,37.30
2019-02-15T01:20:09.506Z,37.43
2019-02-15T01:22:39.778Z,34.37
2019-02-15T01:25:10.063Z,35.27
2019-02-15T01:27:51.902Z,33.90
2019-02-15T01:30:39.798Z,33.77
2019-02-15T01:33:40.986Z,37.90
2019-02-15T01:36:35.913Z,36.73
2019-02-15T01:39:26.076Z,37.67
2019-02-15T01:42:22.868Z,37.93
2019-02-15T01:45:00.456Z,39.27
2019-02-15T01:47:34.798Z,34.47
2019-02-15T01:50:05.801Z,45.43
2019-02-15T01:52:36.090Z,32.40
2019-02-15T01:55:06.680Z,37.60
2019-02-15T01:57:36.977Z,28.40
2019-02-15T02:00:09.596Z,39.20
2019-02-15T02:02:39.884Z,36.40
2019-02-15T02:05:10.131Z,43.07
2019-02-15T02:07:40.489Z,33.90
2019-02-15T02:10:11.533Z,28.07
2019-02-15T02:12:41.813Z,36.67
2019-02-15T02:15:12.393Z,42.60
2019-02-15T02:17:42.712Z,46.87
2019-02-15T02:20:12.992Z,33.70
2019-02-15T02:22:43.259Z,37.90
2019-02-15T02:25:13.623Z,39.87
2019-02-15T02:27:43.940Z,39.77
2019-02-15T02:30:14.713Z,34.90
2019-02-15T02:32:44.986Z,41.93
2019-02-15T02:35:15.261Z,36.40
2019-02-15T02:37:45.523Z,35.83
2019-02-15T02:40:15.811Z,34.30
2019-02-15T02:42:46.055Z,56.27
2019-02-15T02:45:16.335Z,41.27
2019-02-15T02:47:46.612Z,54.73
2019-02-15T02:50:16.897Z,41.27
2019-02-15T02:52:47.155Z,35.03
2019-02-15T02:55:17.452Z,41.00
2019-02-15T02:57:47.693Z,32.77
2019-02-15T03:00:17.997Z,35.87
2019-02-15T03:02:48.260Z,25.27
2019-02-15T03:05:18.546Z,34.93
2019-02-15T03:07:48.801Z,31.53
2019-02-15T03:10:20.650Z,40.83
2019-02-15T03:12:50.902Z,32.53
2019-02-15T03:15:21.180Z,43.83
2019-02-15T03:17:51.424Z,50.23
2019-02-15T03:20:30.893Z,38.73
2019-02-15T03:22:53.578Z,44.97
2019-02-15T03:25:23.821Z,37.63
2019-02-15T03:27:54.102Z,51.87
2019-02-15T03:30:24.339Z,27.60
2019-02-15T03:32:54.639Z,40.37
2019-02-15T03:35:24.929Z,34.37
2019-02-15T03:38:17.231Z,35.27
2019-02-15T03:40:50.976Z,36.00
2019-02-15T03:43:21.226Z,36.97
2019-02-15T03:45:51.681Z,31.60
2019-02-15T03:48:21.943Z,40.33
2019-02-15T03:50:52.212Z,24.43
2019-02-15T03:53:22.519Z,31.27
2019-02-15T03:55:52.908Z,28.07
2019-02-15T03:58:23.186Z,28.13
2019-02-15T04:00:53.494Z,28.80
2019-02-15T04:03:23.749Z,32.43
2019-02-15T04:05:54.003Z,28.53
2019-02-15T04:08:24.291Z,44.07
2019-02-15T04:10:54.578Z,34.50
2019-02-15T04:13:24.861Z,20.10
2019-02-15T04:15:55.147Z,29.23
2019-02-15T04:18:25.424Z,31.77
2019-02-15T04:20:55.701Z,34.17
2019-02-15T04:23:25.963Z,22.60
2019-02-15T04:25:56.298Z,31.73
2019-02-15T04:28:27.304Z,32.80
2019-02-15T04:30:57.583Z,32.07
2019-02-15T04:33:27.856Z,25.23
2019-02-15T04:35:58.151Z,39.17
2019-02-15T04:38:28.394Z,41.10
2019-02-15T04:40:58.640Z,34.67
2019-02-15T04:43:28.931Z,34.77
2019-02-15T04:45:59.218Z,28.23
2019-02-15T04:48:29.486Z,32.63
2019-02-15T04:50:59.761Z,26.17
2019-02-15T04:53:30.000Z,33.90
2019-02-15T04:56:00.258Z,29.00
2019-02-15T04:58:30.522Z,20.50
2019-02-15T05:01:00.796Z,24.73
2019-02-15T05:03:31.106Z,27.33
2019-02-15T05:06:01.357Z,28.73
2019-02-15T05:08:31.665Z,29.03
2019-02-15T05:11:01.990Z,27.80
2019-02-15T05:13:32.277Z,33.30
2019-02-15T05:16:02.535Z,26.13
2019-02-15T05:18:32.819Z,26.40
2019-02-15T05:21:03.109Z,21.63
2019-02-15T05:23:33.513Z,26.70
2019-02-15T05:26:03.753Z,26.37
2019-02-15T05:28:34.042Z,26.57
2019-02-15T05:31:04.315Z,23.60
2019-02-15T05:33:35.641Z,34.60
2019-02-15T05:36:06.035Z,24.07
2019-02-15T05:38:36.284Z,27.77
2019-02-15T05:41:06.602Z,25.27
2019-02-15T05:43:36.857Z,30.60
2019-02-15T05:46:07.129Z,32.10
2019-02-15T05:48:37.399Z,31.83
2019-02-15T05:51:07.837Z,30.30
2019-02-15T05:53:38.054Z,31.97
2019-02-15T05:56:08.417Z,37.70
2019-02-15T05:58:38.709Z,28.33
2019-02-15T06:01:10.783Z,24.60
2019-02-15T06:03:41.042Z,35.33
2019-02-15T06:06:11.284Z,31.90
2019-02-15T06:08:41.598Z,36.13
2019-02-15T06:11:11.950Z,31.67
2019-02-15T06:13:42.289Z,30.40
2019-02-15T06:16:12.545Z,31.93
2019-02-15T06:18:42.961Z,33.47
2019-02-15T06:21:13.203Z,29.97
2019-02-15T06:23:43.498Z,32.53
2019-02-15T06:26:13.775Z,31.53
2019-02-15T06:28:44.106Z,31.20
2019-02-15T06:31:14.365Z,29.67
2019-02-15T06:33:44.705Z,32.73
2019-02-15T06:36:14.940Z,32.30
2019-02-15T06:38:45.293Z,33.43
2019-02-15T06:41:15.557Z,35.40
2019-02-15T06:43:45.898Z,33.17
2019-02-15T06:46:16.182Z,35.57
2019-02-15T06:48:46.502Z,34.13
2019-02-15T06:51:16.831Z,30.47
2019-02-15T06:53:47.118Z,34.37
2019-02-15T06:56:17.445Z,36.30
2019-02-15T06:59:01.817Z,31.20
2019-02-15T07:01:37.961Z,34.60
2019-02-15T07:04:21.958Z,27.07
2019-02-15T07:06:52.250Z,34.10
2019-02-15T07:09:22.546Z,40.23
2019-02-15T07:11:52.867Z,29.93
2019-02-15T07:14:23.171Z,38.23
2019-02-15T07:16:53.595Z,33.13
2019-02-15T07:19:23.840Z,36.00
2019-02-15T07:21:54.104Z,37.10
2019-02-15T07:24:24.401Z,39.73
2019-02-15T07:26:54.658Z,35.63
2019-02-15T07:29:24.962Z,41.40
2019-02-15T07:31:55.226Z,41.50
2019-02-15T07:34:31.426Z,39.57
2019-02-15T07:37:01.693Z,34.40
2019-02-15T07:39:31.990Z,41.27
2019-02-15T07:42:02.280Z,34.67
2019-02-15T07:44:32.581Z,37.73
2019-02-15T07:47:02.897Z,34.50
2019-02-15T07:49:33.635Z,37.13
2019-02-15T07:52:03.929Z,39.80
2019-02-15T07:54:34.289Z,32.07
2019-02-15T07:57:04.606Z,39.53
2019-02-15T07:59:34.869Z,37.17
2019-02-15T08:02:05.173Z,32.43
2019-02-15T08:04:35.517Z,36.23
2019-02-15T08:07:05.805Z,40.93
2019-02-15T08:09:36.072Z,42.63
2019-02-15T08:12:06.421Z,33.90
2019-02-15T08:14:36.730Z,39.03
2019-02-15T08:17:07.039Z,39.00
2019-02-15T08:19:37.297Z,41.73
2019-02-15T08:22:07.573Z,38.93
2019-02-15T08:24:37.849Z,37.47
2019-02-15T08:27:08.139Z,41.23
2019-02-15T08:29:38.534Z,42.87
2019-02-15T08:32:08.826Z,40.70
2019-02-15T08:34:39.108Z,37.63
2019-02-15T08:37:09.412Z,38.23
2019-02-15T08:39:39.744Z,40.27
2019-02-15T08:42:10.025Z,41.90
2019-02-15T08:44:40.484Z,40.50
2019-02-15T08:47:10.854Z,39.53
2019-02-15T08:49:44.154Z,42.80
2019-02-15T08:52:14.418Z,38.60
2019-02-15T08:54:44.686Z,39.37
2019-02-15T08:57:14.936Z,41.27
2019-02-15T08:59:45.214Z,40.90
2019-02-15T09:02:21.128Z,42.43
2019-02-15T09:04:51.582Z,37.07
2019-02-15T09:07:22.053Z,42.67
2019-02-15T09:09:52.396Z,39.77
2019-02-15T09:12:22.621Z,43.93
2019-02-15T09:14:52.917Z,49.00
2019-02-15T09:17:23.217Z,59.27
2019-02-15T09:19:53.613Z,66.77
2019-02-15T09:22:23.921Z,61.47
2019-02-15T09:24:54.202Z,58.37
2019-02-15T09:27:49.493Z,58.37
2019-02-15T09:30:19.748Z,58.43
2019-02-15T09:32:50.056Z,60.97
2019-02-15T09:35:20.330Z,51.53
2019-02-15T09:37:50.685Z,54.83
2019-02-15T09:40:20.962Z,54.77
2019-02-15T09:42:51.238Z,52.40
2019-02-15T09:45:21.497Z,47.60
2019-02-15T09:47:51.853Z,48.77
2019-02-15T09:50:22.118Z,45.63
2019-02-15T09:52:52.420Z,42.07
2019-02-15T09:55:22.673Z,39.47
2019-02-15T09:57:53.024Z,47.53
2019-02-15T10:00:23.387Z,46.17
2019-02-15T10:02:53.599Z,47.43
2019-02-15T10:05:23.863Z,46.67
2019-02-15T10:07:54.189Z,42.87
2019-02-15T10:10:24.505Z,41.43
2019-02-15T10:12:54.872Z,44.87
2019-02-15T10:15:25.240Z,42.37
2019-02-15T10:17:55.526Z,43.27
2019-02-15T10:20:25.800Z,41.80
2019-02-15T10:22:56.054Z,41.30
2019-02-15T10:25:26.334Z,42.70
2019-02-15T10:27:56.593Z,40.30
2019-02-15T10:30:26.917Z,36.87
2019-02-15T10:32:57.218Z,43.23
2019-02-15T10:35:27.559Z,43.50
2019-02-15T10:37:57.868Z,40.10
2019-02-15T10:40:28.161Z,53.63
2019-02-15T10:42:58.490Z,42.13
2019-02-15T10:45:28.776Z,49.80
2019-02-15T10:47:59.090Z,47.60
2019-02-15T10:50:29.385Z,46.97
2019-02-15T10:52:59.766Z,47.40
2019-02-15T10:55:30.206Z,48.83
2019-02-15T10:58:00.589Z,49.97
2019-02-15T11:00:30.908Z,47.00
2019-02-15T11:03:01.358Z,48.13
2019-02-15T11:05:31.781Z,54.20
2019-02-15T11:08:02.116Z,45.37
2019-02-15T11:10:32.393Z,49.27
2019-02-15T11:13:02.716Z,46.67
2019-02-15T11:15:33.045Z,51.33
2019-02-15T11:18:03.306Z,43.67
2019-02-15T11:20:33.657Z,40.37
2019-02-15T11:23:03.956Z,46.33
2019-02-15T11:25:34.241Z,43.67
2019-02-15T11:28:04.617Z,36.67
2019-02-15T11:30:34.977Z,35.10
2019-02-15T11:33:05.373Z,37.30
2019-02-15T11:35:35.643Z,36.23
2019-02-15T11:38:05.933Z,34.80
2019-02-15T11:40:36.262Z,34.00
2019-02-15T11:43:06.516Z,33.90
2019-02-15T11:45:36.917Z,32.57
2019-02-15T11:48:07.220Z,27.63
2019-02-15T11:50:37.498Z,25.93
2019-02-15T11:53:07.777Z,27.43
2019-02-15T11:55:38.083Z,21.97
2019-02-15T11:58:08.375Z,23.20
2019-02-15T12:00:38.677Z,25.97
2019-02-15T12:03:08.995Z,27.83
2019-02-15T12:05:39.294Z,22.27
2019-02-15T12:08:09.585Z,27.67
2019-02-15T12:10:39.872Z,21.53
2019-02-15T12:13:10.183Z,27.70
2019-02-15T12:15:40.473Z,30.90
2019-02-15T12:18:10.795Z,28.13
2019-02-15T12:20:41.160Z,27.17
2019-02-15T12:23:11.453Z,29.33
2019-02-15T12:25:41.778Z,29.83
2019-02-15T12:28:12.028Z,25.50
2019-02-15T12:30:42.273Z,32.20
2019-02-15T12:33:12.582Z,35.67
2019-02-15T12:35:42.827Z,35.13
2019-02-15T12:38:13.132Z,29.57
2019-02-15T12:40:43.717Z,33.07
2019-02-15T12:43:13.986Z,33.27
2019-02-15T12:45:44.329Z,30.73
2019-02-15T12:48:14.622Z,27.93
2019-02-15T12:50:45.481Z,29.80
2019-02-15T12:53:15.782Z,25.83
2019-02-15T12:55:46.084Z,28.70
2019-02-15T12:58:16.346Z,29.73
2019-02-15T13:00:46.673Z,22.27
2019-02-15T13:03:16.967Z,25.73
2019-02-15T13:05:47.221Z,29.60
2019-02-15T13:08:17.495Z,23.63
2019-02-15T13:10:47.750Z,25.53
2019-02-15T13:13:18.015Z,20.00
2019-02-15T13:15:48.305Z,23.90
2019-02-15T13:18:18.610Z,19.40
2019-02-15T13:20:48.869Z,30.23
2019-02-15T13:23:19.182Z,25.07
2019-02-15T13:25:49.441Z,26.43
2019-02-15T13:28:19.742Z,24.30
2019-02-15T13:30:49.977Z,24.63
2019-02-15T13:33:20.268Z,22.80
2019-02-15T13:35:50.647Z,22.60
2019-02-15T13:38:20.922Z,24.73
2019-02-15T13:40:51.284Z,24.80
2019-02-15T13:43:21.540Z,22.80
2019-02-15T13:45:51.944Z,24.73
2019-02-15T13:48:22.193Z,24.70
2019-02-15T13:50:52.569Z,20.33
2019-02-15T13:53:22.893Z,21.30
2019-02-15T13:55:53.197Z,28.23
2019-02-15T13:58:23.523Z,20.20
2019-02-15T14:00:53.879Z,25.40
2019-02-15T14:03:24.181Z,20.00
2019-02-15T14:05:54.494Z,27.97
2019-02-15T14:08:24.789Z,24.80
2019-02-15T14:10:55.041Z,23.90
2019-02-15T14:13:25.298Z,25.10
2019-02-15T14:15:55.586Z,27.57
2019-02-15T14:18:25.897Z,31.93
2019-02-15T14:20:56.150Z,28.17
2019-02-15T14:23:26.478Z,25.83
2019-02-15T14:25:56.737Z,28.53
2019-02-15T14:28:27.013Z,25.50
2019-02-15T14:30:57.329Z,28.93
2019-02-15T14:33:27.568Z,23.80
2019-02-15T14:35:57.864Z,32.13
2019-02-15T14:38:28.117Z,31.00
2019-02-15T14:40:58.385Z,32.77
2019-02-15T14:43:28.682Z,33.23
2019-02-15T14:45:58.962Z,31.73
2019-02-15T14:48:29.274Z,32.03
2019-02-15T14:50:59.541Z,36.70
2019-02-15T14:53:29.829Z,31.07
2019-02-15T14:56:00.141Z,28.17
2019-02-15T14:58:30.457Z,28.60
2019-02-15T15:01:00.890Z,29.87
2019-02-15T15:03:31.148Z,31.40
2019-02-15T15:06:01.537Z,28.73
2019-02-15T15:08:31.887Z,33.67
2019-02-15T15:11:02.254Z,32.53
2019-02-15T15:13:32.575Z,34.60
2019-02-15T15:16:02.987Z,30.93
2019-02-15T15:18:36.065Z,29.73
2019-02-15T15:21:06.353Z,30.57
2019-02-15T15:23:36.678Z,32.13
2019-02-15T15:26:11.851Z,32.17
2019-02-15T15:28:38.894Z,29.20
2019-02-15T15:31:11.341Z,32.80
2019-02-15T15:33:41.293Z,31.00
2019-02-15T15:36:11.564Z,36.20
2019-02-15T15:38:42.102Z,27.83
2019-02-15T15:41:12.362Z,37.70
2019-02-15T15:43:42.648Z,33.27
2019-02-15T15:46:13.076Z,31.80
2019-02-15T15:48:43.466Z,34.07
2019-02-15T15:51:13.827Z,35.07
2019-02-15T15:53:44.157Z,32.57
2019-02-15T15:56:14.553Z,34.77
2019-02-15T15:58:44.946Z,35.80
2019-02-15T16:01:15.426Z,34.37
2019-02-15T16:03:45.733Z,39.07
2019-02-15T16:06:24.049Z,39.00
2019-02-15T16:08:48.124Z,33.77
2019-02-15T16:11:21.665Z,32.43
2019-02-15T16:13:52.031Z,37.57
2019-02-15T16:16:22.265Z,37.90
2019-02-15T16:18:52.570Z,36.33
2019-02-15T16:21:22.891Z,39.40
2019-02-15T16:23:53.302Z,38.00
2019-02-15T16:26:23.605Z,35.77
2019-02-15T16:28:53.953Z,35.80
2019-02-15T16:31:24.213Z,32.57
2019-02-15T16:33:54.697Z,34.03
2019-02-15T16:36:25.029Z,42.27
2019-02-15T16:38:55.379Z,42.00
2019-02-15T16:41:25.701Z,39.43
2019-02-15T16:43:56.156Z,29.67
2019-02-15T16:46:26.503Z,40.23
2019-02-15T16:48:56.794Z,26.97
2019-02-15T16:51:27.117Z,37.30
2019-02-15T16:53:57.458Z,33.53
2019-02-15T16:56:27.740Z,34.40
2019-02-15T16:58:58.141Z,32.47
2019-02-15T17:01:28.765Z,33.83
2019-02-15T17:03:59.025Z,28.80
2019-02-15T17:06:30.079Z,41.33
2019-02-15T17:09:00.427Z,36.83
2019-02-15T17:11:30.786Z,41.60
2019-02-15T17:14:01.140Z,43.13
2019-02-15T17:16:31.426Z,36.90
2019-02-15T17:19:01.911Z,35.10
2019-02-15T17:21:32.182Z,35.97
2019-02-15T17:24:02.442Z,33.10
2019-02-15T17:26:32.709Z,38.57
2019-02-15T17:29:03.062Z,31.47
2019-02-15T17:31:33.318Z,36.47
2019-02-15T17:34:03.577Z,40.97
2019-02-15T17:36:33.869Z,40.63
2019-02-15T17:39:04.869Z,36.07
2019-02-15T17:41:35.190Z,44.43
2019-02-15T17:44:05.460Z,37.83
2019-02-15T17:46:35.741Z,40.90
2019-02-15T17:49:06.032Z,32.07
2019-02-15T17:51:36.317Z,37.73
2019-02-15T17:54:06.711Z,31.47
2019-02-15T17:56:36.973Z,35.57
2019-02-15T17:59:07.261Z,32.53
2019-02-15T18:01:37.530Z,36.83
2019-02-15T18:04:07.873Z,30.87
2019-02-15T18:06:38.311Z,33.83
2019-02-15T18:09:08.601Z,30.53
2019-02-15T18:11:38.885Z,34.83
2019-02-15T18:14:09.318Z,39.00
2019-02-15T18:16:39.662Z,28.43
2019-02-15T18:19:10.507Z,29.83
2019-02-15T18:21:41.114Z,34.73
2019-02-15T18:24:11.445Z,31.93
2019-02-15T18:26:41.705Z,32.47
2019-02-15T18:29:12.004Z,50.30
2019-02-15T18:31:42.298Z,43.40
2019-02-15T18:34:12.621Z,41.47
2019-02-15T18:36:42.944Z,50.83
2019-02-15T18:39:13.236Z,43.27
2019-02-15T18:41:43.780Z,41.13
2019-02-15T18:44:14.025Z,36.37
2019-02-15T18:46:44.294Z,48.27
2019-02-15T18:49:19.358Z,54.83
2019-02-15T18:51:46.525Z,44.43
2019-02-15T18:54:16.790Z,46.33
2019-02-15T18:56:47.168Z,54.47
2019-02-15T18:59:17.754Z,62.93
2019-02-15T19:01:48.406Z,69.20
2019-02-15T19:04:19.275Z,67.10
2019-02-15T19:06:49.543Z,65.37
2019-02-15T19:09:19.828Z,45.87
2019-02-15T19:11:50.121Z,51.77
2019-02-15T19:14:20.662Z,68.87
2019-02-15T19:16:50.913Z,47.27
2019-02-15T19:19:28.856Z,85.67
2019-02-15T19:21:54.262Z,58.00
2019-02-15T19:24:24.538Z,40.20
2019-02-15T19:26:54.870Z,41.67
2019-02-15T19:29:26.543Z,44.90
2019-02-15T19:31:56.841Z,29.87
2019-02-15T19:34:27.144Z,34.83
2019-02-15T19:36:57.469Z,28.33
2019-02-15T19:39:27.790Z,34.37
2019-02-15T19:41:58.052Z,26.83
2019-02-15T19:44:30.677Z,32.83
2019-02-15T19:47:00.988Z,28.23
2019-02-15T19:49:38.450Z,35.80
2019-02-15T19:52:03.102Z,41.87
2019-02-15T19:54:33.429Z,40.23
2019-02-15T19:57:03.705Z,37.23
2019-02-15T19:59:33.977Z,49.80
2019-02-15T20:02:04.367Z,41.83
2019-02-15T20:04:34.868Z,34.90
2019-02-15T20:07:05.416Z,33.93
2019-02-15T20:09:35.890Z,46.17
2019-02-15T20:12:06.186Z,71.30
2019-02-15T20:14:36.504Z,40.43
2019-02-15T20:17:06.793Z,61.00
2019-02-15T20:19:37.070Z,32.77
2019-02-15T20:22:07.388Z,36.40
2019-02-15T20:24:37.822Z,43.87
2019-02-15T20:27:08.947Z,34.93
2019-02-15T20:29:39.484Z,44.73
2019-02-15T20:32:10.303Z,31.27
2019-02-15T20:34:45.327Z,31.03
2019-02-15T20:37:13.879Z,30.43
2019-02-15T20:39:44.204Z,29.40
2019-02-15T20:42:14.650Z,33.77
2019-02-15T20:44:44.976Z,28.40
2019-02-15T20:47:16.309Z,35.87
2019-02-15T20:49:46.544Z,35.67
2019-02-15T20:52:16.894Z,38.60
2019-02-15T20:54:47.605Z,28.13
2019-02-15T20:57:18.042Z,26.07
2019-02-15T20:59:48.634Z,33.57
2019-02-15T21:02:19.125Z,27.50
2019-02-15T21:04:49.665Z,30.03
2019-02-15T21:07:19.955Z,32.13
2019-02-15T21:09:50.234Z,33.07
2019-02-15T21:12:20.599Z,27.33
2019-02-15T21:14:51.092Z,35.07
2019-02-15T21:17:40.545Z,41.13
2019-02-15T21:20:12.020Z,39.77
2019-02-15T21:22:42.454Z,32.63
2019-02-15T21:25:13.426Z,25.47
2019-02-15T21:27:43.829Z,35.00
2019-02-15T21:30:14.802Z,25.90
2019-02-15T21:32:45.058Z,28.40
2019-02-15T21:35:15.496Z,34.83
2019-02-15T21:37:45.841Z,30.50
2019-02-15T21:40:16.701Z,33.63
2019-02-15T21:42:47.069Z,37.17
2019-02-15T21:45:17.355Z,37.73
2019-02-15T21:47:48.077Z,35.20
2019-02-15T21:50:18.443Z,31.87
2019-02-15T21:52:48.734Z,32.13
2019-02-15T21:55:19.128Z,33.13
2019-02-15T21:57:49.591Z,54.47
2019-02-15T22:00:20.483Z,48.20
2019-02-15T22:02:53.197Z,33.30
2019-02-15T22:05:23.549Z,49.17
2019-02-15T22:07:53.973Z,28.73
2019-02-15T22:10:24.921Z,44.53
2019-02-15T22:12:55.295Z,68.87
2019-02-15T22:15:25.540Z,50.40
2019-02-15T22:17:55.877Z,48.10
2019-02-15T22:20:27.095Z,49.53
2019-02-15T22:22:57.599Z,31.37
2019-02-15T22:25:27.978Z,36.37
2019-02-15T22:27:58.249Z,55.57
2019-02-15T22:30:28.621Z,57.77
2019-02-15T22:32:58.963Z,32.57
2019-02-15T22:35:29.261Z,36.73
2019-02-15T22:37:59.649Z,50.83
2019-02-15T22:40:41.046Z,67.07
2019-02-15T22:43:17.129Z,52.63
2019-02-15T22:45:47.440Z,36.20
2019-02-15T22:48:17.819Z,59.43
2019-02-15T22:50:48.413Z,36.63
2019-02-15T22:53:18.766Z,61.10
2019-02-15T22:55:50.141Z,34.83
2019-02-15T22:58:20.393Z,40.47
2019-02-15T23:01:05.740Z,40.27
2019-02-15T23:03:35.997Z,44.47
2019-02-15T23:06:06.316Z,38.27
2019-02-15T23:08:36.711Z,34.00
2019-02-15T23:11:07.598Z,36.27
2019-02-15T23:13:37.942Z,37.77
2019-02-15T23:16:08.719Z,27.33
2019-02-15T23:18:38.989Z,35.73
2019-02-15T23:21:09.288Z,28.67
2019-02-15T23:23:39.621Z,40.03
2019-02-15T23:26:09.876Z,36.90
2019-02-15T23:28:40.151Z,50.23
2019-02-15T23:31:10.450Z,31.83
2019-02-15T23:33:40.709Z,26.97
2019-02-15T23:36:10.981Z,33.80
2019-02-15T23:38:41.265Z,33.20
2019-02-15T23:41:11.525Z,33.83
2019-02-15T23:43:41.878Z,34.37
2019-02-15T23:46:12.165Z,43.13
2019-02-15T23:48:42.405Z,37.50
2019-02-15T23:51:12.760Z,40.73
2019-02-15T23:53:43.037Z,32.57
2019-02-15T23:56:13.273Z,46.47
2019-02-15T23:58:43.580Z,43.93
